Time;durP1;ratioP1;P1;durP2;ratioP2;P2;SDS_P1;SDS_P2;PMS_P1;PMS_P2;Temp;Humidity;BMP_temperature;BMP_pressure;BME280_temperature;BME280_humidity;BME280_pressure;Samples;Min_cycle;Max_cycle;Signal;HPM_P1;HPM_P2
2023/04/09 00:00:48;;;;;;;0.90;0.63;;;17.70;51.20;;;;;;5108854;28;20254;-53
2023/04/09 00:03:19;;;;;;;1.00;0.70;;;17.80;51.20;;;;;;5108616;28;20218;-53
2023/04/09 00:05:49;;;;;;;0.75;0.70;;;17.80;51.20;;;;;;5108274;28;20243;-51
2023/04/09 00:08:20;;;;;;;0.98;0.73;;;17.80;51.70;;;;;;5108485;28;20193;-54
2023/04/09 00:10:50;;;;;;;0.65;0.60;;;17.90;51.20;;;;;;5108877;28;20201;-53
2023/04/09 00:13:21;;;;;;;0.75;0.60;;;17.90;51.20;;;;;;5108686;28;20560;-51
2023/04/09 00:15:54;;;;;;;0.73;0.60;;;18.00;51.30;;;;;;5100207;28;20202;-54
2023/04/09 00:18:24;;;;;;;1.05;0.80;;;18.00;51.30;;;;;;5088121;28;20198;-53
2023/04/09 00:20:55;;;;;;;0.82;0.80;;;18.00;51.30;;;;;;5088466;28;20217;-52
2023/04/09 00:23:25;;;;;;;1.40;0.75;;;18.10;51.40;;;;;;5088236;28;20947;-55
2023/04/09 00:25:56;;;;;;;1.20;0.80;;;18.10;51.40;;;;;;5088181;28;20190;-54
2023/04/09 00:28:27;;;;;;;1.70;0.70;;;18.10;51.40;;;;;;5088237;28;20202;-52
2023/04/09 00:30:59;;;;;;;1.08;0.68;;;18.10;51.40;;;;;;5088170;28;20194;-53
2023/04/09 00:33:30;;;;;;;1.13;0.70;;;18.20;51.50;;;;;;5088025;28;20215;-55
2023/04/09 00:36:00;;;;;;;0.88;0.70;;;18.20;51.50;;;;;;5087909;28;20225;-51
2023/04/09 00:38:31;;;;;;;0.73;0.73;;;18.20;51.40;;;;;;5087865;28;20209;-55
2023/04/09 00:41:02;;;;;;;1.75;0.85;;;18.30;51.50;;;;;;5087874;28;20205;-55
2023/04/09 00:43:32;;;;;;;1.10;0.85;;;18.30;51.50;;;;;;5087560;28;20226;-51
2023/04/09 00:46:06;;;;;;;0.60;0.60;;;18.40;51.60;;;;;;5088111;28;20198;-49
2023/04/09 00:48:37;;;;;;;0.80;0.70;;;18.40;51.70;;;;;;5087806;28;20285;-53
2023/04/09 00:51:07;;;;;;;0.80;0.80;;;18.40;51.70;;;;;;5087693;28;20202;-52
2023/04/09 00:53:38;;;;;;;0.60;0.60;;;18.40;51.70;;;;;;5087874;28;20211;-51
2023/04/09 00:56:10;;;;;;;0.70;0.60;;;18.50;51.80;;;;;;5079232;28;20202;-49
2023/04/09 00:58:42;;;;;;;1.05;0.60;;;18.50;51.80;;;;;;5074165;28;20280;-53
2023/04/09 01:01:14;;;;;;;1.15;0.80;;;18.50;51.80;;;;;;5073592;28;20260;-55
2023/04/09 01:03:45;;;;;;;0.98;0.70;;;18.60;52.50;;;;;;5073774;28;20218;-51
2023/04/09 01:06:29;;;;;;;1.13;0.65;;;18.60;51.80;;;;;;5074003;28;20561;-49
2023/04/09 01:09:08;;;;;;;1.15;0.70;;;18.60;51.80;;;;;;5073930;28;20702;-50
2023/04/09 01:11:44;;;;;;;1.02;0.65;;;18.70;51.80;;;;;;5073924;28;20623;-53
2023/04/09 01:14:25;;;;;;;1.33;0.60;;;18.70;51.80;;;;;;5073514;28;20206;-53
2023/04/09 01:17:04;;;;;;;1.23;0.50;;;18.80;51.90;;;;;;5073185;28;20199;-51
2023/04/09 01:19:45;;;;;;;0.63;0.60;;;18.80;51.90;;;;;;5073943;28;20650;-55
2023/04/09 01:22:35;;;;;;;1.25;0.80;;;18.80;52.00;;;;;;5073912;28;20218;-50
2023/04/09 01:25:16;;;;;;;1.33;0.80;;;18.90;52.00;;;;;;5073278;28;20794;-54
2023/04/09 01:27:56;;;;;;;0.73;0.57;;;18.90;52.10;;;;;;5073287;28;20205;-53
2023/04/09 01:30:29;;;;;;;0.80;0.70;;;19.00;52.20;;;;;;5072578;28;20191;-53
2023/04/09 01:33:01;;;;;;;1.00;0.88;;;19.00;52.20;;;;;;5073389;28;20219;-53
2023/04/09 01:35:32;;;;;;;0.98;0.50;;;19.00;52.30;;;;;;5073392;28;20790;-49
2023/04/09 01:38:04;;;;;;;2.35;0.80;;;19.00;52.30;;;;;;5073653;28;20248;-49
2023/04/09 01:40:34;;;;;;;0.93;0.82;;;19.10;52.30;;;;;;5073259;28;20199;-55
2023/04/09 01:43:07;;;;;;;1.38;0.90;;;19.10;52.30;;;;;;5073069;28;20218;-52
2023/04/09 01:45:41;;;;;;;2.40;0.93;;;19.10;52.50;;;;;;5083691;28;20233;-50
2023/04/09 01:48:13;;;;;;;2.50;1.02;;;19.20;52.80;;;;;;5093481;28;20541;-54
2023/04/09 01:50:43;;;;;;;2.03;0.93;;;19.20;52.80;;;;;;5093512;28;20724;-53
2023/04/09 01:53:14;;;;;;;2.60;1.15;;;19.30;52.80;;;;;;5092950;28;20274;-57
2023/04/09 01:55:45;;;;;;;2.05;1.10;;;19.30;52.80;;;;;;5092664;28;20572;-52
2023/04/09 01:58:15;;;;;;;3.08;1.10;;;19.30;52.80;;;;;;5092945;28;20201;-55
2023/04/09 02:00:50;;;;;;;4.18;1.50;;;19.40;53.10;;;;;;5085795;28;20190;-51
2023/04/09 02:03:25;;;;;;;2.83;1.33;;;19.40;53.10;;;;;;5072935;28;20297;-57
2023/04/09 02:06:04;;;;;;;4.78;1.30;;;19.50;53.10;;;;;;5092456;28;20217;-56
2023/04/09 02:08:36;;;;;;;4.32;1.20;;;19.50;53.10;;;;;;5092028;28;20596;-56
2023/04/09 02:11:11;;;;;;;2.35;1.00;;;19.50;53.20;;;;;;5092505;28;20693;-54
2023/04/09 02:13:44;;;;;;;2.83;1.30;;;19.60;53.20;;;;;;5092710;28;20213;-55
2023/04/09 02:16:17;;;;;;;4.72;1.40;;;19.60;53.20;;;;;;5081213;28;20213;-52
2023/04/09 02:18:47;;;;;;;3.50;1.30;;;19.60;53.20;;;;;;5072412;28;20277;-56
2023/04/09 02:21:18;;;;;;;4.18;1.45;;;19.60;53.30;;;;;;5072619;28;20224;-57
2023/04/09 02:23:49;;;;;;;3.40;1.20;;;19.70;53.50;;;;;;5072334;28;20561;-53
2023/04/09 02:26:19;;;;;;;3.03;1.10;;;19.70;53.30;;;;;;5071787;28;20301;-56
2023/04/09 02:28:50;;;;;;;2.30;1.20;;;19.70;53.20;;;;;;5072272;28;20194;-54
2023/04/09 02:31:22;;;;;;;2.88;1.27;;;19.80;53.20;;;;;;5072357;28;20203;-55
2023/04/09 02:33:53;;;;;;;5.32;1.50;;;19.80;53.10;;;;;;5072351;28;20195;-56
2023/04/09 02:36:24;;;;;;;2.75;1.10;;;19.80;53.10;;;;;;5072601;28;20282;-56
2023/04/09 02:38:55;;;;;;;3.70;1.27;;;19.80;53.70;;;;;;5072092;28;20191;-50
2023/04/09 02:41:26;;;;;;;5.30;1.40;;;19.90;53.20;;;;;;5072007;28;20265;-56
2023/04/09 02:43:56;;;;;;;6.50;1.88;;;19.90;53.20;;;;;;5071901;28;20263;-52
2023/04/09 02:46:29;;;;;;;2.65;1.02;;;19.90;53.40;;;;;;5071887;28;20694;-53
2023/04/09 02:48:59;;;;;;;3.50;1.10;;;20.00;53.40;;;;;;5071856;28;20191;-47
2023/04/09 02:51:30;;;;;;;2.50;1.45;;;20.00;53.40;;;;;;5071638;28;20252;-56
2023/04/09 02:54:01;;;;;;;3.85;1.50;;;20.10;53.40;;;;;;5071814;28;20199;-52
2023/04/09 02:56:31;;;;;;;3.97;1.30;;;20.00;53.40;;;;;;5072188;28;20570;-53
2023/04/09 02:59:02;;;;;;;3.45;1.02;;;20.10;53.40;;;;;;5071865;28;20198;-52
2023/04/09 03:01:34;;;;;;;6.05;1.30;;;20.10;53.30;;;;;;5071215;28;20199;-52
2023/04/09 03:04:06;;;;;;;5.60;1.63;;;20.10;53.40;;;;;;5071326;28;20195;-53
2023/04/09 03:06:37;;;;;;;3.78;1.23;;;20.10;53.30;;;;;;5071071;28;20226;-51
2023/04/09 03:09:07;;;;;;;3.70;1.65;;;20.20;53.50;;;;;;5071512;28;20654;-53
2023/04/09 03:11:38;;;;;;;3.72;1.45;;;20.20;53.50;;;;;;5071485;28;20195;-54
2023/04/09 03:14:09;;;;;;;2.92;1.25;;;20.20;53.50;;;;;;5071542;28;20194;-54
2023/04/09 03:16:41;;;;;;;4.68;1.55;;;20.30;53.60;;;;;;5071248;28;20654;-53
2023/04/09 03:19:12;;;;;;;3.08;1.58;;;20.30;53.60;;;;;;5071409;28;20202;-52
2023/04/09 03:21:42;;;;;;;1.90;1.13;;;20.30;53.50;;;;;;5071541;28;20201;-53
2023/04/09 03:24:13;;;;;;;1.85;1.23;;;20.30;53.50;;;;;;5071565;28;20202;-52
2023/04/09 03:26:44;;;;;;;3.67;1.63;;;20.40;53.50;;;;;;5071759;28;20819;-54
2023/04/09 03:29:14;;;;;;;2.50;1.42;;;20.40;53.50;;;;;;5071833;28;20599;-51
2023/04/09 03:31:47;;;;;;;4.97;1.40;;;20.50;53.60;;;;;;5071364;28;20244;-51
2023/04/09 03:34:17;;;;;;;4.10;1.27;;;20.50;53.60;;;;;;5071274;28;20205;-51
2023/04/09 03:36:48;;;;;;;4.82;1.50;;;20.50;53.50;;;;;;5071681;28;20198;-51
2023/04/09 03:39:18;;;;;;;3.55;1.58;;;20.50;53.50;;;;;;5071539;28;20195;-51
2023/04/09 03:41:49;;;;;;;4.93;1.35;;;20.50;53.50;;;;;;5071775;28;20702;-55
2023/04/09 03:44:20;;;;;;;4.20;1.50;;;20.50;53.50;;;;;;5071468;28;20289;-55
2023/04/09 03:46:52;;;;;;;4.55;1.35;;;20.60;53.50;;;;;;5071524;28;20709;-55
2023/04/09 03:49:23;;;;;;;4.25;1.40;;;20.60;53.50;;;;;;5080241;28;20546;-49
2023/04/09 03:51:53;;;;;;;4.55;1.65;;;20.60;53.60;;;;;;5091258;28;20218;-53
2023/04/09 03:54:24;;;;;;;4.60;1.40;;;20.70;53.60;;;;;;5091612;28;20210;-52
2023/04/09 03:56:55;;;;;;;4.78;1.60;;;20.70;53.50;;;;;;5091714;28;20205;-51
2023/04/09 03:59:25;;;;;;;3.55;1.38;;;20.80;53.50;;;;;;5090305;28;20264;-51
2023/04/09 04:01:58;;;;;;;4.10;1.65;;;20.80;53.50;;;;;;5090702;28;20693;-57
2023/04/09 04:04:28;;;;;;;4.88;1.55;;;20.80;53.50;;;;;;5090833;28;20567;-55
2023/04/09 04:06:59;;;;;;;4.75;1.65;;;20.80;53.40;;;;;;5087787;28;20190;-51
2023/04/09 04:09:30;;;;;;;3.53;1.50;;;20.80;53.40;;;;;;5091570;28;20194;-55
2023/04/09 04:12:02;;;;;;;3.00;1.45;;;20.90;53.40;;;;;;5091183;28;20218;-52
2023/04/09 04:14:32;;;;;;;3.65;1.40;;;20.90;53.30;;;;;;5091006;28;20202;-53
2023/04/09 04:17:05;;;;;;;3.88;1.55;;;20.90;53.40;;;;;;5090326;28;20198;-55
2023/04/09 04:19:36;;;;;;;3.08;1.77;;;20.90;53.30;;;;;;5090904;28;20194;-51
2023/04/09 04:22:06;;;;;;;2.95;1.30;;;20.90;53.30;;;;;;5090822;28;20269;-52
2023/04/09 04:24:37;;;;;;;3.65;1.80;;;20.90;53.20;;;;;;5090780;28;20201;-55
2023/04/09 04:27:07;;;;;;;4.30;1.35;;;21.00;53.30;;;;;;5090629;28;20210;-52
2023/04/09 04:29:38;;;;;;;3.60;1.73;;;21.00;53.30;;;;;;5091082;28;20194;-51
2023/04/09 04:32:11;;;;;;;4.50;1.67;;;21.00;53.30;;;;;;5094275;28;20214;-53
2023/04/09 04:34:41;;;;;;;4.45;1.52;;;21.00;53.20;;;;;;5095045;28;20194;-55
2023/04/09 04:37:14;;;;;;;3.28;1.60;;;21.00;53.20;;;;;;5094939;28;20198;-52
2023/04/09 04:39:45;;;;;;;4.35;1.83;;;21.00;53.10;;;;;;5094508;28;20191;-54
2023/04/09 04:42:15;;;;;;;3.58;1.45;;;21.10;53.20;;;;;;5094357;28;20214;-53
2023/04/09 04:44:46;;;;;;;4.18;1.33;;;21.10;53.20;;;;;;5094552;28;20206;-49
2023/04/09 04:47:19;;;;;;;4.03;1.63;;;21.10;53.10;;;;;;5075206;28;20205;-49
2023/04/09 04:49:49;;;;;;;3.97;1.50;;;21.10;53.10;;;;;;5074008;28;20222;-51
2023/04/09 04:52:20;;;;;;;3.63;1.67;;;21.10;53.10;;;;;;5074330;28;20222;-55
2023/04/09 04:54:51;;;;;;;4.40;1.90;;;21.10;53.10;;;;;;5073968;28;20187;-52
2023/04/09 04:57:21;;;;;;;4.20;1.52;;;21.10;53.00;;;;;;5074484;28;20195;-51
2023/04/09 04:59:52;;;;;;;3.78;1.55;;;21.10;53.00;;;;;;5073969;28;20206;-52
2023/04/09 05:02:25;;;;;;;4.10;1.50;;;21.10;53.00;;;;;;5073814;28;20703;-51
2023/04/09 05:04:55;;;;;;;3.17;1.30;;;21.10;52.90;;;;;;5074230;28;20682;-50
2023/04/09 05:07:26;;;;;;;3.00;1.40;;;21.10;52.90;;;;;;5074237;28;20198;-53
2023/04/09 05:09:56;;;;;;;3.05;1.50;;;21.10;52.90;;;;;;5074111;28;20248;-51
2023/04/09 05:12:27;;;;;;;3.00;1.40;;;21.10;52.90;;;;;;5073950;28;20222;-52
2023/04/09 05:14:58;;;;;;;2.28;1.40;;;21.10;52.90;;;;;;5073551;28;20199;-54
2023/04/09 05:17:30;;;;;;;3.00;1.55;;;21.10;52.90;;;;;;5073430;28;20603;-55
2023/04/09 05:20:01;;;;;;;3.28;1.38;;;21.10;52.90;;;;;;5074080;28;20195;-53
2023/04/09 05:22:32;;;;;;;4.07;1.40;;;21.10;52.90;;;;;;5073888;28;20211;-52
2023/04/09 05:25:02;;;;;;;2.15;1.08;;;21.10;52.80;;;;;;5073667;28;20268;-50
2023/04/09 05:27:33;;;;;;;2.17;1.35;;;21.10;52.80;;;;;;5073687;28;20199;-54
2023/04/09 05:30:04;;;;;;;4.55;1.70;;;21.10;52.80;;;;;;5073646;28;20292;-52
2023/04/09 05:32:36;;;;;;;3.10;1.30;;;21.10;52.80;;;;;;5073218;28;20586;-47
2023/04/09 05:35:07;;;;;;;2.05;1.15;;;21.10;52.80;;;;;;5073691;28;20654;-52
2023/04/09 05:37:38;;;;;;;2.70;1.15;;;21.10;52.70;;;;;;5073731;28;20191;-53
2023/04/09 05:40:09;;;;;;;2.72;1.17;;;21.10;52.70;;;;;;5073679;28;20258;-51
2023/04/09 05:42:40;;;;;;;2.72;1.27;;;21.10;52.70;;;;;;5073105;28;20589;-52
2023/04/09 05:45:11;;;;;;;2.92;1.35;;;21.10;52.70;;;;;;5073060;28;20210;-54
2023/04/09 05:47:44;;;;;;;2.45;1.50;;;21.10;52.70;;;;;;5073497;28;20195;-53
2023/04/09 05:50:15;;;;;;;2.65;1.50;;;21.10;52.70;;;;;;5082850;28;20248;-50
2023/04/09 05:52:45;;;;;;;4.07;1.63;;;21.10;52.70;;;;;;5092659;28;20298;-53
2023/04/09 05:55:16;;;;;;;4.30;1.67;;;21.00;52.70;;;;;;5089044;28;20590;-53
2023/04/09 05:57:47;;;;;;;4.70;2.22;;;21.10;52.70;;;;;;5092590;28;20194;-50
2023/04/09 06:00:18;;;;;;;3.50;1.70;;;21.10;52.70;;;;;;5093368;28;20209;-52
2023/04/09 06:02:50;;;;;;;2.67;1.58;;;21.10;52.70;;;;;;5093236;28;20214;-53
2023/04/09 06:05:21;;;;;;;3.63;2.17;;;21.10;52.70;;;;;;5092966;28;20201;-54
2023/04/09 06:07:51;;;;;;;3.08;1.92;;;21.10;52.60;;;;;;5090454;28;20186;-50
2023/04/09 06:10:22;;;;;;;3.38;1.83;;;21.10;52.70;;;;;;5093362;28;20198;-55
2023/04/09 06:12:53;;;;;;;3.33;1.50;;;21.00;52.60;;;;;;5093063;28;20301;-52
2023/04/09 06:15:23;;;;;;;3.80;1.90;;;21.10;52.60;;;;;;5093060;28;20198;-56
2023/04/09 06:17:56;;;;;;;3.55;1.52;;;21.00;52.60;;;;;;5093144;28;20190;-54
2023/04/09 06:20:27;;;;;;;5.10;2.13;;;21.00;52.50;;;;;;5093066;28;20240;-55
2023/04/09 06:22:57;;;;;;;2.10;1.50;;;21.00;52.50;;;;;;5092974;28;20214;-53
2023/04/09 06:25:28;;;;;;;3.45;2.20;;;21.00;52.50;;;;;;5093007;28;20206;-53
2023/04/09 06:27:59;;;;;;;4.45;2.03;;;21.00;52.50;;;;;;5092976;28;20680;-52
2023/04/09 06:30:30;;;;;;;3.30;1.52;;;21.00;52.50;;;;;;5092607;28;20662;-57
2023/04/09 06:33:03;;;;;;;2.90;1.60;;;21.00;52.50;;;;;;5092545;28;20610;-57
2023/04/09 06:35:33;;;;;;;4.10;1.98;;;21.00;52.50;;;;;;5092624;28;20557;-56
2023/04/09 06:38:04;;;;;;;4.63;1.85;;;21.00;52.50;;;;;;5092784;28;20288;-53
2023/04/09 06:40:35;;;;;;;3.17;1.80;;;21.00;52.50;;;;;;5092441;28;20194;-53
2023/04/09 06:43:05;;;;;;;2.38;1.70;;;21.00;52.50;;;;;;5091921;28;20697;-54
2023/04/09 06:45:36;;;;;;;3.30;1.77;;;21.00;52.50;;;;;;5086855;28;20226;-56
2023/04/09 06:48:09;;;;;;;3.53;1.50;;;21.00;52.50;;;;;;5071803;28;20253;-52
2023/04/09 06:50:40;;;;;;;3.67;1.73;;;20.90;52.40;;;;;;5071865;28;20655;-54
2023/04/09 06:53:10;;;;;;;2.63;1.80;;;21.00;52.40;;;;;;5071309;28;20683;-57
2023/04/09 06:55:41;;;;;;;3.05;2.15;;;20.90;52.40;;;;;;5071878;28;20206;-56
2023/04/09 06:58:11;;;;;;;3.10;1.95;;;20.90;52.40;;;;;;5071952;28;20214;-55
2023/04/09 07:00:42;;;;;;;3.03;1.90;;;20.90;52.30;;;;;;5071939;28;20191;-57
2023/04/09 07:03:15;;;;;;;3.88;1.95;;;20.90;52.30;;;;;;5071556;28;20690;-53
2023/04/09 07:05:46;;;;;;;3.08;1.85;;;20.90;52.30;;;;;;5070994;28;20199;-55
2023/04/09 07:08:17;;;;;;;3.95;2.10;;;20.90;52.40;;;;;;5071472;28;20195;-54
2023/04/09 07:10:47;;;;;;;3.22;1.80;;;20.90;52.30;;;;;;5071494;28;20195;-56
2023/04/09 07:13:18;;;;;;;2.60;1.67;;;20.80;52.30;;;;;;5071030;28;20253;-54
2023/04/09 07:15:48;;;;;;;3.40;1.90;;;20.90;52.30;;;;;;5071745;28;20710;-52
2023/04/09 07:18:21;;;;;;;2.47;1.50;;;20.80;52.30;;;;;;5071686;28;20202;-56
2023/04/09 07:20:54;;;;;;;2.97;1.60;;;20.90;52.40;;;;;;5071461;28;20256;-55
2023/04/09 07:23:24;;;;;;;3.35;2.00;;;20.90;52.40;;;;;;5071397;28;20709;-55
2023/04/09 07:25:55;;;;;;;3.00;1.92;;;20.90;52.40;;;;;;5071386;28;20197;-53
2023/04/09 07:28:26;;;;;;;2.85;1.80;;;20.80;52.30;;;;;;5071461;28;20199;-55
2023/04/09 07:30:56;;;;;;;2.85;1.88;;;20.80;52.30;;;;;;5071387;28;20214;-50
2023/04/09 07:33:29;;;;;;;3.00;1.92;;;20.80;52.30;;;;;;5071692;28;20219;-55
2023/04/09 07:35:59;;;;;;;3.05;1.80;;;20.80;52.30;;;;;;5071495;28;20658;-53
2023/04/09 07:38:32;;;;;;;3.38;2.00;;;20.80;52.40;;;;;;5071714;28;20206;-54
2023/04/09 07:41:02;;;;;;;2.85;2.10;;;20.80;52.30;;;;;;5071537;28;20218;-55
2023/04/09 07:43:33;;;;;;;3.15;2.17;;;20.80;52.40;;;;;;5071078;28;20601;-52
2023/04/09 07:46:04;;;;;;;5.05;2.20;;;20.70;52.40;;;;;;5071658;28;20233;-57
2023/04/09 07:48:36;;;;;;;2.08;1.67;;;20.70;52.30;;;;;;5071575;28;20202;-55
2023/04/09 07:51:07;;;;;;;2.67;1.67;;;20.70;52.30;;;;;;5071641;28;20199;-56
2023/04/09 07:53:38;;;;;;;3.55;2.00;;;20.70;52.30;;;;;;5071293;28;20345;-51
2023/04/09 07:56:09;;;;;;;2.50;1.90;;;20.70;52.30;;;;;;5088102;28;20194;-56
2023/04/09 07:58:40;;;;;;;3.13;1.98;;;20.70;52.30;;;;;;5091237;28;20201;-56
2023/04/09 08:01:10;;;;;;;2.85;2.10;;;20.70;52.30;;;;;;5087807;28;20190;-56
2023/04/09 08:03:43;;;;;;;2.95;2.03;;;20.70;52.30;;;;;;5090996;28;20249;-54
2023/04/09 08:06:13;;;;;;;2.83;1.90;;;20.70;52.30;;;;;;5092330;28;20651;-56
2023/04/09 08:08:44;;;;;;;3.88;2.25;;;20.70;52.30;;;;;;5091482;28;20197;-55
2023/04/09 08:11:15;;;;;;;2.33;1.90;;;20.70;52.40;;;;;;5095402;28;20205;-55
2023/04/09 08:13:45;;;;;;;2.67;1.92;;;20.70;52.40;;;;;;5095243;28;20222;-50
2023/04/09 08:16:16;;;;;;;3.00;2.03;;;20.60;52.30;;;;;;5094670;28;20194;-55
2023/04/09 08:18:49;;;;;;;2.55;1.90;;;20.60;52.30;;;;;;5095275;28;20198;-57
2023/04/09 08:21:20;;;;;;;3.47;1.75;;;20.60;52.30;;;;;;5095320;28;20198;-55
2023/04/09 08:23:50;;;;;;;4.15;2.22;;;20.60;52.30;;;;;;5095297;28;20213;-56
2023/04/09 08:26:21;;;;;;;2.63;2.00;;;20.60;52.30;;;;;;5094661;28;20222;-54
2023/04/09 08:28:51;;;;;;;3.28;2.15;;;20.60;52.30;;;;;;5094565;28;20205;-52
2023/04/09 08:31:22;;;;;;;2.33;1.95;;;20.50;52.30;;;;;;5094418;28;20205;-57
2023/04/09 08:33:54;;;;;;;2.35;1.80;;;20.50;52.20;;;;;;5094535;28;20257;-52
2023/04/09 08:36:26;;;;;;;3.28;2.00;;;20.50;52.20;;;;;;5094910;28;20658;-57
2023/04/09 08:38:57;;;;;;;2.60;1.63;;;20.50;52.20;;;;;;5094760;28;20209;-56
2023/04/09 08:41:29;;;;;;;3.28;2.00;;;20.50;52.20;;;;;;5094785;28;20666;-55
2023/04/09 08:44:00;;;;;;;2.13;1.77;;;20.50;52.20;;;;;;5094678;28;20237;-55
2023/04/09 08:46:31;;;;;;;3.70;2.28;;;20.50;52.20;;;;;;5094769;28;20225;-57
2023/04/09 08:49:04;;;;;;;3.50;1.85;;;20.50;52.20;;;;;;5094650;28;20198;-56
2023/04/09 08:51:34;;;;;;;3.03;1.80;;;20.50;52.20;;;;;;5094736;28;20202;-57
2023/04/09 08:54:05;;;;;;;2.33;1.70;;;20.50;52.20;;;;;;5095787;28;20205;-54
2023/04/09 08:56:36;;;;;;;2.63;1.90;;;20.50;52.20;;;;;;5094416;28;20205;-55
2023/04/09 08:59:07;;;;;;;2.65;1.73;;;20.50;52.30;;;;;;5094779;28;20202;-52
2023/04/09 09:01:37;;;;;;;2.80;1.95;;;20.50;52.30;;;;;;5094495;28;20201;-53
2023/04/09 09:04:11;;;;;;;3.13;1.80;;;20.40;52.30;;;;;;5094504;28;20198;-53
2023/04/09 09:06:43;;;;;;;2.80;2.05;;;20.40;52.20;;;;;;5093931;28;20263;-54
2023/04/09 09:09:14;;;;;;;3.72;2.00;;;20.40;52.30;;;;;;5094348;28;20195;-55
2023/04/09 09:11:47;;;;;;;3.00;2.20;;;20.40;52.20;;;;;;5094309;28;20252;-54
2023/04/09 09:14:19;;;;;;;3.65;2.30;;;20.40;52.20;;;;;;5094462;28;20198;-54
2023/04/09 09:17:07;;;;;;;3.38;2.30;;;20.40;52.30;;;;;;5077755;28;20207;-51
2023/04/09 09:19:41;;;;;;;3.50;2.40;;;20.40;52.20;;;;;;5073933;28;20198;-55
2023/04/09 09:22:12;;;;;;;4.00;2.70;;;20.40;52.20;;;;;;5073990;28;20215;-52
2023/04/09 09:24:49;;;;;;;3.97;2.53;;;20.40;52.20;;;;;;5074064;28;20230;-51
2023/04/09 09:27:35;;;;;;;3.35;2.30;;;20.30;52.20;;;;;;5073703;28;20705;-51
2023/04/09 09:30:08;;;;;;;3.17;2.55;;;20.30;52.20;;;;;;5073787;28;20202;-55
2023/04/09 09:32:39;;;;;;;3.63;2.15;;;20.30;52.20;;;;;;5073295;28;20781;-54
2023/04/09 09:35:12;;;;;;;3.05;2.40;;;20.30;52.20;;;;;;5073865;28;20206;-52
2023/04/09 09:37:43;;;;;;;3.95;2.45;;;20.30;52.20;;;;;;5073819;28;20646;-54
2023/04/09 09:40:27;;;;;;;3.33;2.47;;;20.30;52.20;;;;;;5073477;28;20191;-55
2023/04/09 09:42:59;;;;;;;2.42;2.05;;;20.30;52.20;;;;;;5073659;28;20219;-55
2023/04/09 09:45:30;;;;;;;3.38;2.22;;;20.20;52.20;;;;;;5073385;28;20218;-54
2023/04/09 09:48:01;;;;;;;2.60;2.15;;;20.20;52.30;;;;;;5073661;28;20230;-54
2023/04/09 09:50:36;;;;;;;3.63;2.78;;;20.20;52.20;;;;;;5073309;28;20198;-54
2023/04/09 09:53:08;;;;;;;4.00;2.50;;;20.20;52.30;;;;;;5073339;28;20221;-51
2023/04/09 09:55:42;;;;;;;2.72;2.00;;;20.20;52.30;;;;;;5074523;28;20194;-53
2023/04/09 09:58:18;;;;;;;3.05;2.53;;;20.20;52.30;;;;;;5075416;28;20190;-51
2023/04/09 10:00:50;;;;;;;2.40;2.20;;;20.20;52.30;;;;;;5092294;28;20189;-55
2023/04/09 10:03:24;;;;;;;3.50;2.22;;;20.20;52.30;;;;;;5093619;28;20218;-51
2023/04/09 10:05:57;;;;;;;2.50;2.15;;;20.20;52.30;;;;;;5092373;28;20246;-53
2023/04/09 10:08:28;;;;;;;2.80;2.45;;;20.20;52.30;;;;;;5081367;28;20217;-52
2023/04/09 10:10:59;;;;;;;4.45;2.90;;;20.10;52.30;;;;;;5093226;28;20287;-52
2023/04/09 10:13:36;;;;;;;4.50;3.22;;;20.10;52.30;;;;;;5092915;28;20210;-51
2023/04/09 10:16:08;;;;;;;5.47;3.58;;;20.10;52.30;;;;;;5083179;28;20566;-52
2023/04/09 10:18:41;;;;;;;4.40;2.72;;;20.10;52.30;;;;;;5072465;28;20206;-51
2023/04/09 10:21:26;;;;;;;5.05;3.03;;;20.10;52.30;;;;;;5072879;28;20677;-53
2023/04/09 10:23:57;;;;;;;3.22;2.45;;;20.10;52.30;;;;;;5072947;28;20241;-52
2023/04/09 10:26:29;;;;;;;3.40;2.70;;;20.10;52.30;;;;;;5088651;28;20198;-52
2023/04/09 10:29:12;;;;;;;4.43;2.60;;;20.10;52.40;;;;;;5091535;28;20305;-52
2023/04/09 10:31:54;;;;;;;3.92;2.88;;;20.10;52.90;;;;;;5092229;28;20194;-54
2023/04/09 10:34:28;;;;;;;3.63;2.78;;;20.00;52.30;;;;;;5093147;28;20212;-54
2023/04/09 10:37:01;;;;;;;5.07;3.20;;;20.00;52.30;;;;;;5092386;28;20202;-49
2023/04/09 10:39:33;;;;;;;4.53;2.92;;;20.00;52.30;;;;;;5092337;28;20248;-51
2023/04/09 10:42:13;;;;;;;4.38;2.90;;;20.00;52.30;;;;;;5092839;28;20244;-51
2023/04/09 10:44:43;;;;;;;5.28;3.70;;;20.00;52.30;;;;;;5092129;28;20205;-50
2023/04/09 10:47:32;;;;;;;5.03;3.63;;;20.00;52.30;;;;;;5092218;28;20226;-50
2023/04/09 10:50:18;;;;;;;4.30;3.22;;;20.00;52.30;;;;;;5091934;28;20198;-54
2023/04/09 10:52:54;;;;;;;4.85;3.78;;;20.00;52.30;;;;;;5092295;28;20221;-54
2023/04/09 10:55:37;;;;;;;5.50;3.97;;;19.90;52.30;;;;;;5092620;28;20202;-52
2023/04/09 10:58:09;;;;;;;4.30;3.20;;;19.90;52.30;;;;;;5092537;28;20238;-51
2023/04/09 11:00:42;;;;;;;4.82;3.50;;;19.90;52.30;;;;;;5092121;28;20700;-55
2023/04/09 11:03:29;;;;;;;4.63;3.60;;;19.90;52.30;;;;;;5091666;28;20218;-55
2023/04/09 11:06:04;;;;;;;4.60;3.28;;;19.90;52.30;;;;;;5092277;28;20650;-55
2023/04/09 11:08:38;;;;;;;5.28;3.50;;;19.90;52.30;;;;;;5092159;28;20218;-55
2023/04/09 11:11:08;;;;;;;4.13;3.13;;;19.80;52.30;;;;;;5091922;28;20285;-51
2023/04/09 11:13:40;;;;;;;3.65;3.03;;;19.90;52.30;;;;;;5091571;28;20214;-55
2023/04/09 11:16:10;;;;;;;4.88;3.30;;;19.80;52.30;;;;;;5081582;28;20259;-52
2023/04/09 11:18:42;;;;;;;4.00;3.10;;;19.80;52.30;;;;;;5071550;28;20248;-50
2023/04/09 11:21:13;;;;;;;4.65;3.08;;;19.80;52.30;;;;;;5071877;28;20591;-52
2023/04/09 11:23:54;;;;;;;4.50;3.10;;;19.90;52.40;;;;;;5071819;28;20218;-52
2023/04/09 11:26:36;;;;;;;3.85;2.92;;;19.80;52.30;;;;;;5071214;28;20222;-54
2023/04/09 11:29:08;;;;;;;3.85;3.00;;;19.90;52.40;;;;;;5071502;28;20279;-55
2023/04/09 11:31:39;;;;;;;5.20;3.60;;;19.80;52.30;;;;;;5072081;28;20281;-55
2023/04/09 11:34:13;;;;;;;4.60;3.33;;;19.80;52.30;;;;;;5071627;28;20206;-55
2023/04/09 11:36:43;;;;;;;4.65;3.53;;;19.80;52.30;;;;;;5071130;28;20274;-54
2023/04/09 11:39:16;;;;;;;4.80;2.95;;;19.80;52.30;;;;;;5071214;28;20203;-53
2023/04/09 11:41:47;;;;;;;5.65;3.75;;;19.80;52.30;;;;;;5071455;28;20647;-54
2023/04/09 11:44:17;;;;;;;4.45;3.13;;;19.80;52.30;;;;;;5071216;28;20206;-54
2023/04/09 11:46:49;;;;;;;4.57;3.67;;;19.80;52.40;;;;;;5071234;28;20206;-54
2023/04/09 11:49:20;;;;;;;4.20;3.03;;;19.80;52.40;;;;;;5071018;28;20229;-52
2023/04/09 11:51:51;;;;;;;4.90;3.22;;;19.70;52.40;;;;;;5070996;28;20223;-54
2023/04/09 11:54:23;;;;;;;4.10;3.22;;;19.80;52.40;;;;;;5070832;28;20206;-57
2023/04/09 11:56:54;;;;;;;4.10;3.30;;;19.70;52.40;;;;;;5070992;28;20202;-56
2023/04/09 11:59:25;;;;;;;4.65;3.33;;;19.70;52.40;;;;;;5072464;28;20655;-53
2023/04/09 12:01:58;;;;;;;4.78;3.15;;;19.70;53.00;;;;;;5091406;28;20218;-55
2023/04/09 12:04:29;;;;;;;4.22;3.17;;;19.70;52.40;;;;;;5086167;28;20198;-57
2023/04/09 12:07:00;;;;;;;5.63;3.40;;;19.70;52.30;;;;;;5091221;28;20244;-56
2023/04/09 12:09:32;;;;;;;4.20;3.17;;;19.70;52.40;;;;;;5091639;28;20226;-53
2023/04/09 12:12:03;;;;;;;3.60;2.63;;;19.70;52.40;;;;;;5090968;28;20218;-55
2023/04/09 12:14:34;;;;;;;4.07;2.95;;;19.70;52.40;;;;;;5091125;28;20198;-54
2023/04/09 12:17:04;;;;;;;3.67;3.17;;;19.70;52.40;;;;;;5073368;28;20198;-56
2023/04/09 12:19:38;;;;;;;4.40;3.00;;;19.70;52.30;;;;;;5071266;28;20205;-54
2023/04/09 12:22:08;;;;;;;4.38;3.00;;;19.70;52.40;;;;;;5070896;28;20222;-53
2023/04/09 12:24:41;;;;;;;4.28;3.25;;;19.60;52.30;;;;;;5082265;28;20202;-56
2023/04/09 12:27:11;;;;;;;5.00;3.50;;;19.60;52.30;;;;;;5090446;28;20658;-54
2023/04/09 12:29:42;;;;;;;4.07;2.90;;;19.60;52.40;;;;;;5090537;28;20288;-54
2023/04/09 12:32:13;;;;;;;3.72;3.03;;;19.60;52.40;;;;;;5090850;28;20217;-55
2023/04/09 12:34:43;;;;;;;4.40;3.08;;;19.60;52.40;;;;;;5091189;28;20255;-54
2023/04/09 12:37:14;;;;;;;4.50;3.28;;;19.60;52.40;;;;;;5090638;28;20609;-56
2023/04/09 12:39:46;;;;;;;4.80;3.35;;;19.60;52.40;;;;;;5090686;28;20198;-55
2023/04/09 12:42:17;;;;;;;4.05;3.17;;;19.60;52.40;;;;;;5090890;28;20211;-55
2023/04/09 12:44:48;;;;;;;4.35;2.80;;;19.60;52.40;;;;;;5090982;28;20206;-54
2023/04/09 12:47:19;;;;;;;4.40;3.08;;;19.60;52.40;;;;;;5071255;28;20727;-54
2023/04/09 12:49:49;;;;;;;3.78;2.83;;;19.60;52.40;;;;;;5070785;28;20206;-54
2023/04/09 12:52:21;;;;;;;4.32;2.78;;;19.60;52.40;;;;;;5072172;28;20215;-55
2023/04/09 12:54:54;;;;;;;4.18;3.03;;;19.60;52.40;;;;;;5073988;28;20199;-53
2023/04/09 12:57:24;;;;;;;5.22;3.10;;;19.60;52.40;;;;;;5073544;28;20203;-54
2023/04/09 12:59:55;;;;;;;4.15;2.97;;;19.50;52.30;;;;;;5073800;28;20658;-54
2023/04/09 13:02:27;;;;;;;4.18;2.97;;;19.50;52.40;;;;;;5073932;28;20223;-55
2023/04/09 13:04:57;;;;;;;3.30;2.78;;;19.50;52.40;;;;;;5074182;28;20570;-51
2023/04/09 13:07:28;;;;;;;3.97;2.65;;;19.50;52.40;;;;;;5073962;28;20191;-53
2023/04/09 13:10:00;;;;;;;4.28;3.00;;;19.50;52.40;;;;;;5074042;28;20191;-52
2023/04/09 13:12:31;;;;;;;4.32;2.90;;;19.50;52.50;;;;;;5073836;28;20222;-56